Time,TemperatureF,DewpointF,PressureIn,WindDirection,WindDirectionDegrees,WindSpeedMPH,WindSpeedGustMPH,Humidity,HourlyPrecipIn,Conditions,Clouds,dailyrainin,SolarRadiationWatts/m^2,SoftwareType,DateUTC
2013-05-19 00:00:00,63.9,60.3,29.94,East,96,0.0,2.0,88,0.00,RA,SCT,0.00,0.0,WeatherDisplay:10.37,2013-05-19 10:00:00,
2013-05-19 00:10:00,63.8,60.2,29.94,East,96,0.0,2.0,88,0.00,CLR,SCT,0.00,0.0,WeatherDisplay:10.37,2013-05-19 10:10:00,
2013-05-19 00:20:00,63.6,60.0,29.94,East,96,0.0,2.0,88,0.00,CLR,SCT,0.00,0.0,WeatherDisplay:10.37,2013-05-19 10:20:00,
2013-05-19 00:30:00,63.4,60.1,29.94,ESE,107,1.0,5.0,89,0.00,CLR,SCT,0.00,0.0,WeatherDisplay:10.37,2013-05-19 10:30:00,
2013-05-19 00:40:00,63.2,59.9,29.93,ESE,110,0.0,3.0,89,0.00,CLR,SCT,0.00,0.0,WeatherDisplay:10.37,2013-05-19 10:40:00,
2013-05-19 00:50:00,63.0,59.7,29.93,ESE,110,0.0,4.0,89,0.00,CLR,SCT,0.00,0.0,WeatherDisplay:10.37,2013-05-19 10:50:00,
2013-05-19 01:00:00,62.9,59.6,29.93,ESE,110,0.0,2.0,89,0.00,CLR,SCT,0.00,0.0,WeatherDisplay:10.37,2013-05-19 11:00:00,
2013-05-19 01:10:00,62.7,59.4,29.93,ESE,110,0.0,3.0,89,0.00,CLR,SCT,0.00,0.0,WeatherDisplay:10.37,2013-05-19 11:10:00,
2013-05-19 01:20:00,62.4,59.1,29.93,ESE,110,0.0,1.0,89,0.00,CLR,SCT,0.00,0.0,WeatherDisplay:10.37,2013-05-19 11:20:00,
2013-05-19 01:30:00,62.3,59.3,29.92,ESE,110,0.0,1.0,90,0.00,CLR,SCT,0.00,0.0,WeatherDisplay:10.37,2013-05-19 11:30:00,
2013-05-19 01:40:00,62.0,58.7,29.92,ESE,110,1.0,3.0,89,0.00,CLR,SCT,0.00,0.0,WeatherDisplay:10.37,2013-05-19 11:40:00,
2013-05-19 01:50:00,61.9,58.6,29.92,ESE,110,0.0,3.0,89,0.00,CLR,SCT,0.00,0.0,WeatherDisplay:10.37,2013-05-19 11:50:00,
2013-05-19 02:00:00,61.8,58.6,29.91,ESE,110,1.0,3.0,89,0.00,CLR,SCT,0.00,0.0,WeatherDisplay:10.37,2013-05-19 12:00:00,
2013-05-19 02:10:00,61.9,58.9,29.91,ESE,110,0.0,3.0,90,0.00,CLR,SCT,0.00,0.0,WeatherDisplay:10.37,2013-05-19 12:10:00,
2013-05-19 02:20:00,61.8,58.8,29.90,ESE,110,0.0,1.0,90,0.00,CLR,SCT,0.00,0.0,WeatherDisplay:10.37,2013-05-19 12:20:00,
2013-05-19 02:30:00,61.6,58.3,29.90,ESE,110,0.0,0.0,89,0.00,CLR,SCT,0.00,0.0,WeatherDisplay:10.37,2013-05-19 12:30:00,
2013-05-19 02:40:00,61.4,58.7,29.90,ESE,110,0.0,0.0,91,0.00,CLR,SCT,0.00,0.0,WeatherDisplay:10.37,2013-05-19 12:40:00,
2013-05-19 02:50:00,61.3,58.6,29.90,ESE,110,0.0,1.0,91,0.00,CLR,SCT,0.00,0.0,WeatherDisplay:10.37,2013-05-19 12:50:00,
2013-05-19 03:00:00,61.1,58.5,29.90,ESE,110,0.0,1.0,91,0.00,CLR,SCT,0.00,0.0,WeatherDisplay:10.37,2013-05-19 13:00:00,
2013-05-19 03:10:00,61.0,58.4,29.90,ESE,110,0.0,2.0,91,0.00,CLR,SCT,0.00,0.0,WeatherDisplay:10.37,2013-05-19 13:10:00,
2013-05-19 03:20:00,60.9,58.3,29.90,ESE,110,0.0,3.0,91,0.00,CLR,SCT,0.00,0.0,WeatherDisplay:10.37,2013-05-19 13:20:00,
2013-05-19 03:30:00,60.9,58.3,29.90,ESE,110,0.0,3.0,91,0.00,CLR,SCT,0.00,0.0,WeatherDisplay:10.37,2013-05-19 13:30:00,
2013-05-19 03:40:00,60.7,58.1,29.90,ESE,110,0.0,3.0,91,0.00,CLR,SCT,0.00,0.0,WeatherDisplay:10.37,2013-05-19 13:40:00,
2013-05-19 03:50:00,60.8,58.5,29.90,SE,129,1.0,4.0,92,0.00,CLR,SCT,0.00,0.0,WeatherDisplay:10.37,2013-05-19 13:50:00,
2013-05-19 04:00:00,61.0,58.6,29.90,SE,136,0.0,4.0,92,0.00,CLR,SCT,0.00,0.0,WeatherDisplay:10.37,2013-05-19 14:00:00,
2013-05-19 04:10:00,61.0,58.7,29.90,SE,137,0.0,3.0,92,0.00,CLR,SCT,0.00,0.0,WeatherDisplay:10.37,2013-05-19 14:10:00,
2013-05-19 04:20:00,61.0,58.4,29.90,SE,137,1.0,3.0,91,0.00,CLR,SCT,0.00,0.0,WeatherDisplay:10.37,2013-05-19 14:20:00,
2013-05-19 04:30:00,61.1,58.5,29.90,SE,137,2.0,4.0,91,0.00,CLR,SCT,0.00,0.0,WeatherDisplay:10.37,2013-05-19 14:30:00,
2013-05-19 04:40:00,61.2,58.6,29.90,SE,140,1.0,4.0,91,0.00,CLR,SCT,0.00,0.0,WeatherDisplay:10.37,2013-05-19 14:40:00,
2013-05-19 04:50:00,61.4,58.7,29.90,SSE,153,1.0,4.0,91,0.00,CLR,SCT,0.00,0.0,WeatherDisplay:10.37,2013-05-19 14:50:00,
2013-05-19 05:00:00,61.5,58.5,29.90,SSE,153,0.0,4.0,90,0.00,CLR,SCT,0.00,0.0,WeatherDisplay:10.37,2013-05-19 15:00:00,
2013-05-19 05:10:00,61.4,58.1,29.90,SSE,153,0.0,2.0,89,0.00,CLR,SCT,0.00,0.0,WeatherDisplay:10.37,2013-05-19 15:10:00,
2013-05-19 05:20:00,61.4,58.8,29.90,SSE,153,1.0,4.0,91,0.00,CLR,SCT,0.00,0.0,WeatherDisplay:10.37,2013-05-19 15:20:00,
2013-05-19 05:30:00,61.6,58.7,29.90,SSE,155,1.0,4.0,90,0.00,CLR,SCT,0.00,0.0,WeatherDisplay:10.37,2013-05-19 15:30:00,
2013-05-19 05:40:00,61.6,58.3,29.90,SSE,156,2.0,4.0,89,0.00,CLR,SCT,0.00,0.0,WeatherDisplay:10.37,2013-05-19 15:40:00,
2013-05-19 05:50:00,61.7,58.4,29.90,South,174,3.0,5.0,89,0.00,CLR,SCT,0.00,0.1,WeatherDisplay:10.37,2013-05-19 15:50:00,
2013-05-19 06:00:00,62.1,58.8,29.91,South,180,0.0,5.0,89,0.00,CLR,SCT,0.00,0.4,WeatherDisplay:10.37,2013-05-19 16:00:00,
2013-05-19 06:10:00,62.2,58.9,29.91,South,180,0.0,3.0,89,0.00,CLR,SCT,0.00,1.1,WeatherDisplay:10.37,2013-05-19 16:10:00,
2013-05-19 06:20:00,62.2,58.9,29.92,South,180,0.0,3.0,89,0.00,CLR,SCT,0.00,2.4,WeatherDisplay:10.37,2013-05-19 16:20:00,
2013-05-19 06:30:00,62.1,59.1,29.92,South,180,2.0,3.0,90,0.00,CLR,SCT,0.00,19.2,WeatherDisplay:10.37,2013-05-19 16:30:00,
2013-05-19 06:40:00,62.4,60.0,29.92,South,180,2.0,6.0,92,0.00,CLR,SCT,0.00,11.5,WeatherDisplay:10.37,2013-05-19 16:40:00,
2013-05-19 06:50:00,63.1,61.1,29.92,South,181,3.0,4.0,93,0.00,CLR,SCT,0.00,14.0,WeatherDisplay:10.37,2013-05-19 16:50:00,
2013-05-19 07:00:00,64.3,61.9,29.92,South,190,3.0,6.0,92,0.00,CLR,SCT,0.00,28.3,WeatherDisplay:10.37,2013-05-19 17:00:00,
2013-05-19 07:10:00,65.7,63.3,29.92,SSW,196,3.0,8.0,92,0.00,SCT,SCT,0.00,11.4,WeatherDisplay:10.37,2013-05-19 17:10:00,
2013-05-19 07:20:00,66.7,63.7,29.92,SSW,193,5.0,8.0,90,0.00,SCT,SCT,0.00,28.6,WeatherDisplay:10.37,2013-05-19 17:20:00,
2013-05-19 07:30:00,67.7,63.7,29.92,South,186,3.0,8.0,87,0.00,SCT,SCT,0.00,95.2,WeatherDisplay:10.37,2013-05-19 17:30:00,
2013-05-19 07:40:00,68.7,63.7,29.92,South,189,5.0,6.0,84,0.00,SCT,SCT,0.00,114.7,WeatherDisplay:10.37,2013-05-19 17:40:00,
2013-05-19 07:50:00,69.7,63.9,29.92,WSW,241,3.0,7.0,82,0.00,SCT,SCT,0.00,132.8,WeatherDisplay:10.37,2013-05-19 17:50:00,
2013-05-19 08:00:00,70.6,64.5,29.92,SW,235,3.0,7.0,81,0.00,SCT,SCT,0.00,153.8,WeatherDisplay:10.37,2013-05-19 18:00:00,
2013-05-19 08:10:00,71.4,64.6,29.92,SW,234,5.0,6.0,79,0.00,SCT,SCT,0.00,175.1,WeatherDisplay:10.37,2013-05-19 18:10:00,
2013-05-19 08:20:00,72.0,65.1,29.92,WSW,251,6.0,8.0,79,0.00,SCT,SCT,0.00,200.7,WeatherDisplay:10.37,2013-05-19 18:20:00,
2013-05-19 08:30:00,72.4,65.5,29.92,West,277,6.0,9.0,79,0.00,SCT,SCT,0.00,225.1,WeatherDisplay:10.37,2013-05-19 18:30:00,
2013-05-19 08:40:00,72.8,65.6,29.92,WNW,300,5.0,10.0,78,0.00,SCT,SCT,0.00,244.3,WeatherDisplay:10.37,2013-05-19 18:40:00,
2013-05-19 08:50:00,73.7,66.8,29.92,West,280,3.0,10.0,79,0.00,SCT,SCT,0.00,265.3,WeatherDisplay:10.37,2013-05-19 18:50:00,
2013-05-19 09:00:00,74.6,66.5,29.92,WNW,301,3.0,7.0,76,0.00,SCT,SCT,0.00,310.7,WeatherDisplay:10.37,2013-05-19 19:00:00,
2013-05-19 09:10:00,75.8,67.3,29.92,NW,313,5.0,8.0,75,0.00,SCT,SCT,0.00,337.8,WeatherDisplay:10.37,2013-05-19 19:10:00,
2013-05-19 09:20:00,76.8,67.5,29.92,NW,309,5.0,7.0,73,0.00,SCT,SCT,0.00,336.8,WeatherDisplay:10.37,2013-05-19 19:20:00,
2013-05-19 09:30:00,76.8,67.5,29.92,NW,308,3.0,8.0,73,0.00,SCT,SCT,0.00,270.6,WeatherDisplay:10.37,2013-05-19 19:30:00,
2013-05-19 09:40:00,77.0,66.9,29.92,NW,321,0.0,7.0,71,0.00,SCT,SCT,0.00,239.0,WeatherDisplay:10.37,2013-05-19 19:40:00,
2013-05-19 09:50:00,77.8,67.2,29.92,NW,325,3.0,6.0,70,0.00,SCT,SCT,0.00,361.5,WeatherDisplay:10.37,2013-05-19 19:50:00,
2013-05-19 10:00:00,77.4,67.3,29.92,NNW,329,3.0,9.0,71,0.00,SCT,SCT,0.00,492.2,WeatherDisplay:10.37,2013-05-19 20:00:00,
2013-05-19 10:10:00,77.5,66.1,29.92,NNW,336,1.0,6.0,68,0.00,SCT,SCT,0.00,520.6,WeatherDisplay:10.37,2013-05-19 20:10:00,
2013-05-19 10:20:00,77.3,66.3,29.92,NW,310,0.0,9.0,69,0.00,SCT,SCT,0.00,580.9,WeatherDisplay:10.37,2013-05-19 20:20:00,
2013-05-19 10:30:00,77.1,67.0,29.91,NW,322,6.0,14.0,71,0.00,SCT,SCT,0.00,565.3,WeatherDisplay:10.37,2013-05-19 20:30:00,
2013-05-19 10:40:00,78.0,67.8,29.91,NW,317,6.0,8.0,71,0.00,SCT,SCT,0.00,614.5,WeatherDisplay:10.37,2013-05-19 20:40:00,
2013-05-19 10:50:00,78.6,67.2,29.91,North,354,1.0,9.0,68,0.00,SCT,SCT,0.00,623.0,WeatherDisplay:10.37,2013-05-19 20:50:00,
2013-05-19 11:00:00,79.4,67.9,29.90,NNW,330,5.0,10.0,68,0.00,SCT,SCT,0.00,670.7,WeatherDisplay:10.37,2013-05-19 21:00:00,
2013-05-19 11:10:00,78.9,67.0,29.90,NNW,331,7.0,10.0,67,0.00,SCT,SCT,0.00,335.7,WeatherDisplay:10.37,2013-05-19 21:10:00,
2013-05-19 11:20:00,77.8,68.5,29.90,North,352,3.0,12.0,73,0.00,SCT,SCT,0.00,749.6,WeatherDisplay:10.37,2013-05-19 21:20:00,
2013-05-19 11:30:00,79.1,68.0,29.90,North,353,5.0,12.0,69,0.00,SCT,SCT,0.00,755.3,WeatherDisplay:10.37,2013-05-19 21:30:00,
2013-05-19 11:40:00,79.3,67.4,29.89,NNW,345,3.0,8.0,67,0.00,SCT,SCT,0.00,245.0,WeatherDisplay:10.37,2013-05-19 21:40:00,
2013-05-19 11:50:00,78.4,67.8,29.89,North,354,5.0,9.0,70,0.00,SCT,SCT,0.00,408.4,WeatherDisplay:10.37,2013-05-19 21:50:00,
2013-05-19 12:00:00,77.9,67.0,29.89,North,2,5.0,9.0,69,0.00,SCT,SCT,0.00,774.8,WeatherDisplay:10.37,2013-05-19 22:00:00,
2013-05-19 12:10:00,78.0,67.8,29.89,North,349,6.0,10.0,71,0.00,SCT,SCT,0.00,734.8,WeatherDisplay:10.37,2013-05-19 22:10:00,
2013-05-19 12:20:00,78.7,67.2,29.88,NNW,341,6.0,10.0,68,0.00,SCT,SCT,0.00,312.8,WeatherDisplay:10.37,2013-05-19 22:20:00,
2013-05-19 12:30:00,77.8,67.2,29.88,NNE,17,7.0,12.0,70,0.00,SCT,SCT,0.00,275.8,WeatherDisplay:10.37,2013-05-19 22:30:00,
2013-05-19 12:40:00,77.0,67.3,29.88,North,11,5.0,9.0,72,0.00,SCT,SCT,0.00,275.2,WeatherDisplay:10.37,2013-05-19 22:40:00,
2013-05-19 12:50:00,76.9,68.4,29.87,North,3,3.0,8.0,75,0.00,SCT,SCT,0.00,270.4,WeatherDisplay:10.37,2013-05-19 22:50:00,
2013-05-19 13:00:00,76.2,67.7,29.87,NNE,15,3.0,12.0,75,0.00,SCT,SCT,0.00,433.8,WeatherDisplay:10.37,2013-05-19 23:00:00,
2013-05-19 13:10:00,76.9,67.6,29.86,North,354,7.0,10.0,73,0.00,SCT,SCT,0.00,274.2,WeatherDisplay:10.37,2013-05-19 23:10:00,
2013-05-19 13:20:00,76.9,67.6,29.87,North,0,7.0,12.0,73,0.00,SCT,SCT,0.00,319.9,WeatherDisplay:10.37,2013-05-19 23:20:00,
2013-05-19 13:30:00,76.6,67.7,29.86,North,1,6.0,12.0,74,0.00,SCT,SCT,0.00,413.2,WeatherDisplay:10.37,2013-05-19 23:30:00,
2013-05-19 13:40:00,76.5,68.0,29.86,North,358,6.0,10.0,75,0.00,SCT,SCT,0.00,301.8,WeatherDisplay:10.37,2013-05-19 23:40:00,
2013-05-19 13:50:00,76.5,67.2,29.86,NE,39,5.0,9.0,73,0.00,SCT,SCT,0.00,257.8,WeatherDisplay:10.37,2013-05-19 23:50:00,
2013-05-19 14:00:00,76.1,67.2,29.86,NNE,15,2.0,9.0,74,0.00,SCT,SCT,0.00,231.1,WeatherDisplay:10.37,2013-05-20 00:00:00,
2013-05-19 14:10:00,75.9,66.6,29.86,North,6,2.0,8.0,73,0.00,BKN,SCT,0.00,171.4,WeatherDisplay:10.37,2013-05-20 00:10:00,
2013-05-19 14:20:00,74.8,66.4,29.85,North,360,5.0,9.0,75,0.00,BKN,SCT,0.00,307.2,WeatherDisplay:10.37,2013-05-20 00:20:00,
2013-05-19 14:30:00,74.8,66.7,29.86,North,5,3.0,9.0,76,0.00,BKN,SCT,0.00,191.3,WeatherDisplay:10.37,2013-05-20 00:30:00,
2013-05-19 14:40:00,74.5,66.8,29.85,NNE,23,5.0,10.0,77,0.00,BKN,SCT,0.00,213.8,WeatherDisplay:10.37,2013-05-20 00:40:00,
2013-05-19 14:50:00,74.4,66.7,29.85,North,5,7.0,10.0,77,0.00,BKN,SCT,0.00,206.9,WeatherDisplay:10.37,2013-05-20 00:50:00,
2013-05-19 15:00:00,74.1,66.0,29.85,North,354,5.0,9.0,76,0.00,BKN,SCT,0.00,127.0,WeatherDisplay:10.37,2013-05-20 01:00:00,
2013-05-19 15:10:00,73.7,66.8,29.85,NNW,345,6.0,12.0,79,0.00,SCT,SCT,0.00,183.3,WeatherDisplay:10.37,2013-05-20 01:10:00,
2013-05-19 15:20:00,73.7,66.4,29.85,NNW,336,3.0,12.0,78,0.00,SCT,SCT,0.00,362.3,WeatherDisplay:10.37,2013-05-20 01:20:00,
2013-05-19 15:30:00,75.6,67.1,29.85,NNW,343,3.0,10.0,75,0.00,SCT,SCT,0.00,146.8,WeatherDisplay:10.37,2013-05-20 01:30:00,
2013-05-19 15:40:00,76.2,67.7,29.85,NNW,346,5.0,9.0,75,0.00,SCT,SCT,0.00,239.9,WeatherDisplay:10.37,2013-05-20 01:40:00,
2013-05-19 15:50:00,76.2,66.9,29.85,NNW,342,7.0,9.0,73,0.00,SCT,SCT,0.00,127.0,WeatherDisplay:10.37,2013-05-20 01:50:00,
2013-05-19 16:00:00,75.5,65.9,29.85,NW,325,5.0,9.0,72,0.00,SCT,SCT,0.00,150.6,WeatherDisplay:10.37,2013-05-20 02:00:00,
2013-05-19 16:10:00,75.7,65.6,29.85,NNW,328,5.0,12.0,71,0.00,SCT,SCT,0.00,138.8,WeatherDisplay:10.37,2013-05-20 02:10:00,
2013-05-19 16:20:00,74.7,64.3,29.85,NNW,347,2.0,9.0,70,0.00,SCT,SCT,0.00,107.8,WeatherDisplay:10.37,2013-05-20 02:20:00,
2013-05-19 16:30:00,73.7,64.9,29.85,NNW,344,5.0,10.0,74,0.00,SCT,SCT,0.00,93.7,WeatherDisplay:10.37,2013-05-20 02:30:00,
2013-05-19 16:40:00,73.5,64.3,29.85,North,349,6.0,9.0,73,0.00,SCT,SCT,0.00,71.8,WeatherDisplay:10.37,2013-05-20 02:40:00,
2013-05-19 16:50:00,73.0,64.2,29.85,NNW,348,3.0,8.0,74,0.00,SCT,SCT,0.00,35.7,WeatherDisplay:10.37,2013-05-20 02:50:00,
2013-05-19 17:00:00,72.3,65.1,29.85,NNW,329,2.0,6.0,78,0.00,SCT,SCT,0.00,30.8,WeatherDisplay:10.37,2013-05-20 03:00:00,
2013-05-19 17:10:00,71.9,64.3,29.85,North,351,3.0,7.0,77,0.00,SCT,SCT,0.00,33.6,WeatherDisplay:10.37,2013-05-20 03:10:00,
2013-05-19 17:20:00,72.1,64.9,29.85,North,353,5.0,9.0,78,0.00,SCT,SCT,0.00,25.7,WeatherDisplay:10.37,2013-05-20 03:20:00,
2013-05-19 17:30:00,71.6,65.1,29.86,North,349,3.0,8.0,80,0.00,SCT,SCT,0.00,14.3,WeatherDisplay:10.37,2013-05-20 03:30:00,
2013-05-19 17:40:00,71.2,65.1,29.86,NNW,345,3.0,7.0,81,0.00,SCT,SCT,0.00,54.5,WeatherDisplay:10.37,2013-05-20 03:40:00,
2013-05-19 17:50:00,71.3,65.2,29.86,NNW,348,5.0,10.0,81,0.00,SCT,SCT,0.00,12.4,WeatherDisplay:10.37,2013-05-20 03:50:00,
2013-05-19 18:00:00,70.9,64.8,29.86,North,352,2.0,8.0,81,0.00,SCT,SCT,0.00,6.7,WeatherDisplay:10.37,2013-05-20 04:00:00,
2013-05-19 18:10:00,70.4,64.6,29.86,NNW,341,2.0,7.0,82,0.00,-RA,SCT,0.00,3.7,WeatherDisplay:10.37,2013-05-20 04:10:00,
2013-05-19 18:20:00,70.1,65.0,29.86,NNW,345,1.0,7.0,84,0.00,-RA,SCT,0.00,1.8,WeatherDisplay:10.37,2013-05-20 04:20:00,
2013-05-19 18:30:00,69.9,65.1,29.86,North,355,1.0,5.0,85,0.00,-RA,SCT,0.00,0.5,WeatherDisplay:10.37,2013-05-20 04:30:00,
2013-05-19 18:40:00,69.6,65.2,29.87,NE,36,0.0,3.0,86,0.00,-RA,SCT,0.00,0.2,WeatherDisplay:10.37,2013-05-20 04:40:00,
2013-05-19 18:50:00,69.4,65.3,29.87,NNW,333,3.0,6.0,87,0.00,-RA,SCT,0.00,0.1,WeatherDisplay:10.37,2013-05-20 04:50:00,
2013-05-19 19:00:00,68.9,64.9,29.88,NNW,329,0.0,5.0,87,0.00,-RA,SCT,0.00,0.0,WeatherDisplay:10.37,2013-05-20 05:00:00,
2013-05-19 19:10:00,68.4,64.4,29.88,NNW,329,0.0,3.0,87,0.00,SCT,SCT,0.00,0.0,WeatherDisplay:10.37,2013-05-20 05:10:00,
2013-05-19 19:20:00,67.9,64.2,29.88,NE,45,0.0,2.0,88,0.00,SCT,SCT,0.00,0.0,WeatherDisplay:10.37,2013-05-20 05:20:00,
2013-05-19 19:30:00,67.4,62.7,29.89,ESE,103,1.0,3.0,85,0.00,SCT,SCT,0.00,0.0,WeatherDisplay:10.37,2013-05-20 05:30:00,
2013-05-19 19:40:00,66.9,62.2,29.89,ESE,106,0.0,2.0,85,0.00,SCT,SCT,0.00,0.0,WeatherDisplay:10.37,2013-05-20 05:40:00,
2013-05-19 19:50:00,66.4,61.4,29.89,ESE,106,1.0,3.0,84,0.00,SCT,SCT,0.00,0.0,WeatherDisplay:10.37,2013-05-20 05:50:00,
2013-05-19 20:00:00,65.9,60.9,29.89,ESE,106,1.0,4.0,84,0.00,SCT,SCT,0.00,0.0,WeatherDisplay:10.37,2013-05-20 06:00:00,
2013-05-19 20:10:00,65.6,61.0,29.89,ESE,106,1.0,2.0,85,0.00,FEW,SCT,0.00,0.0,WeatherDisplay:10.37,2013-05-20 06:10:00,
2013-05-19 20:20:00,65.3,60.7,29.90,ESE,106,0.0,2.0,85,0.00,FEW,SCT,0.00,0.0,WeatherDisplay:10.37,2013-05-20 06:20:00,
2013-05-19 20:30:00,65.1,60.8,29.90,ESE,106,0.0,0.0,86,0.00,FEW,SCT,0.00,0.0,WeatherDisplay:10.37,2013-05-20 06:30:00,
2013-05-19 20:40:00,64.9,60.6,29.90,ESE,106,0.0,1.0,86,0.00,FEW,SCT,0.00,0.0,WeatherDisplay:10.37,2013-05-20 06:40:00,
2013-05-19 20:50:00,64.5,60.6,29.90,ESE,106,0.0,1.0,87,0.00,FEW,SCT,0.00,0.0,WeatherDisplay:10.37,2013-05-20 06:50:00,
2013-05-19 21:00:00,64.3,60.3,29.90,ESE,106,0.0,1.0,87,0.00,FEW,SCT,0.00,0.0,WeatherDisplay:10.37,2013-05-20 07:00:00,
2013-05-19 21:10:00,64.0,60.0,29.90,ESE,106,0.0,1.0,87,0.00,FEW,SCT,0.00,0.0,WeatherDisplay:10.37,2013-05-20 07:10:00,
2013-05-19 21:20:00,63.8,60.1,29.91,ESE,106,0.0,3.0,88,0.00,FEW,SCT,0.00,0.0,WeatherDisplay:10.37,2013-05-20 07:20:00,
2013-05-19 21:30:00,63.7,59.7,29.90,ESE,106,1.0,4.0,87,0.00,FEW,SCT,0.00,0.0,WeatherDisplay:10.37,2013-05-20 07:30:00,
2013-05-19 21:40:00,63.6,59.7,29.91,ESE,106,0.0,4.0,87,0.00,FEW,SCT,0.00,0.0,WeatherDisplay:10.37,2013-05-20 07:40:00,
2013-05-19 21:50:00,63.5,59.2,29.91,ESE,106,0.0,1.0,86,0.00,FEW,SCT,0.00,0.0,WeatherDisplay:10.37,2013-05-20 07:50:00,
2013-05-19 22:00:00,63.4,59.1,29.92,ESE,106,0.0,3.0,86,0.00,FEW,SCT,0.00,0.0,WeatherDisplay:10.37,2013-05-20 08:00:00,
2013-05-19 22:10:00,63.3,59.4,29.92,ESE,106,0.0,1.0,87,0.00,FEW,SCT,0.00,0.0,WeatherDisplay:10.37,2013-05-20 08:10:00,
2013-05-19 22:20:00,63.3,59.0,29.92,ESE,106,0.0,3.0,86,0.00,SCT,SCT,0.00,0.0,WeatherDisplay:10.37,2013-05-20 08:20:00,
2013-05-19 22:30:00,63.2,59.3,29.92,ESE,106,0.0,3.0,87,0.00,SCT,SCT,0.00,0.0,WeatherDisplay:10.37,2013-05-20 08:30:00,
2013-05-19 22:40:00,63.2,59.6,29.92,ESE,106,0.0,2.0,88,0.00,SCT,SCT,0.00,0.0,WeatherDisplay:10.37,2013-05-20 08:40:00,
2013-05-19 22:50:00,63.6,60.6,29.92,ESE,106,1.0,3.0,90,0.00,SCT,SCT,0.00,0.0,WeatherDisplay:10.37,2013-05-20 08:50:00,
2013-05-19 23:00:00,63.8,60.5,29.92,ESE,106,0.0,2.0,89,0.00,SCT,SCT,0.00,0.0,WeatherDisplay:10.37,2013-05-20 09:00:00,
2013-05-19 23:10:00,63.8,60.8,29.92,ESE,106,0.0,1.0,90,0.00,SCT,SCT,0.00,0.0,WeatherDisplay:10.37,2013-05-20 09:10:00,
2013-05-19 23:20:00,64.0,61.6,29.92,ESE,106,0.0,2.0,92,0.00,OVC,SCT,0.00,0.0,WeatherDisplay:10.37,2013-05-20 09:20:00,
2013-05-19 23:30:00,64.0,61.0,29.91,ESE,106,0.0,1.0,90,0.00,OVC,SCT,0.00,0.0,WeatherDisplay:10.37,2013-05-20 09:30:00,
2013-05-19 23:40:00,63.6,60.6,29.91,ESE,106,0.0,1.0,90,0.00,OVC,SCT,0.00,0.0,WeatherDisplay:10.37,2013-05-20 09:40:00,
2013-05-19 23:50:00,63.3,60.6,29.91,ESE,106,0.0,1.0,91,0.00,OVC,SCT,0.00,0.0,WeatherDisplay:10.37,2013-05-20 09:50:00,